PWSweather.com
Personal Weather Stations
Station Observations
TEOWRC
Pt, CampotizzoroIT 51028

PtCampotizzoroIT 51028

Lat: 44.039426, Lon: 10.870519999999942

Elevation: 0

Station Type: Davis Vantage Vue

http://www.meteocampotizzoro.it/

Latest ConditionsUpdated 8:15:04 AM GMT+01:01 Thursday, Oct 19, 2017
Currently Today's Max Today's Min Today's Average
Temperature 41.7°F5.4°C 41.7°F5.4°C 35.4°F1.9°C 38.3°F3.5°C
Dew Point 40.9°F4.9°C 40.9°F4.9°C 34.4°F1.3°C 37.3°F2.9°C
Winds Calm Calm Calm SECalm SE - Calm Calm
Wind Gusts -- -- - -
Humidity 97% 98% 95% 96%
Pressure 30.12 in1020.0 mb 30.13 in1020.3 mb 30.10 in1019.3 mb -
Precipitation - 0.01 in0.3 mm - -
Hour Temp Dew Point Humidity Winds Wind Gusts Pressure Precip Precip Rate Daily Precip Total
08:15 AM 41.7°F5.4°C 40.9°F4.9°C 97% Calm Calm -- 30.12 in1020.0 mb - 0.00 in0.0 mm 0.01 in0.3 mm
08:10 AM 41.3°F5.2°C 40.5°F4.7°C 97% Calm Calm -- 30.12 in1020.0 mb - 0.00 in0.0 mm 0.01 in0.3 mm
08:05 AM 40.8°F4.9°C 40.1°F4.5°C 97% Calm Calm -- 30.12 in1020.0 mb - 0.00 in0.0 mm 0.01 in0.3 mm
08:00 AM 40.5°F4.7°C 39.7°F4.3°C 97% Calm Calm -- 30.12 in1020.0 mb - 0.00 in0.0 mm 0.01 in0.3 mm
07:55 AM 40.3°F4.6°C 39.5°F4.2°C 97% Calm Calm -- 30.12 in1020.0 mb - 0.00 in0.0 mm 0.01 in0.3 mm
07:50 AM 40.0°F4.4°C 39.2°F4.0°C 97% Calm Calm -- 30.12 in1020.0 mb - 0.00 in0.0 mm 0.01 in0.3 mm
07:45 AM 39.9°F4.4°C 39.1°F3.9°C 97% Calm Calm -- 30.12 in1020.0 mb - 0.00 in0.0 mm 0.01 in0.3 mm
07:40 AM 39.4°F4.1°C 38.6°F3.7°C 97% Calm Calm -- 30.11 in1019.6 mb - 0.00 in0.0 mm 0.01 in0.3 mm
07:35 AM 39.0°F3.9°C 38.3°F3.5°C 97% Calm Calm -- 30.11 in1019.6 mb - 0.00 in0.0 mm 0.01 in0.3 mm
07:30 AM 38.9°F3.8°C 38.2°F3.4°C 97% Calm Calm -- 30.11 in1019.6 mb - 0.00 in0.0 mm 0.01 in0.3 mm
07:25 AM 38.8°F3.8°C 38.3°F3.5°C 98% Calm Calm -- 30.11 in1019.6 mb - 0.00 in0.0 mm 0.01 in0.3 mm
07:20 AM 37.5°F3.1°C 36.7°F2.6°C 97% Calm Calm -- 30.11 in1019.6 mb - 0.00 in0.0 mm 0.01 in0.3 mm
07:15 AM 36.0°F2.2°C 35.3°F1.8°C 97% Calm Calm -- 30.11 in1019.6 mb - 0.00 in0.0 mm 0.01 in0.3 mm
07:10 AM 35.8°F2.1°C 35.0°F1.7°C 97% Calm Calm -- 30.11 in1019.6 mb - 0.00 in0.0 mm 0.01 in0.3 mm
07:05 AM 35.7°F2.1°C 35.0°F1.7°C 97% Calm Calm -- 30.11 in1019.6 mb - 0.00 in0.0 mm 0.01 in0.3 mm
07:00 AM 35.6°F2.0°C 34.8°F1.6°C 97% Calm Calm -- 30.11 in1019.6 mb - 0.00 in0.0 mm 0.01 in0.3 mm
06:55 AM 35.6°F2.0°C 34.8°F1.6°C 97% Calm Calm -- 30.10 in1019.3 mb - 0.00 in0.0 mm 0.01 in0.3 mm
06:50 AM 35.6°F2.0°C 34.8°F1.6°C 97% Calm Calm -- 30.10 in1019.3 mb - 0.00 in0.0 mm 0.01 in0.3 mm
06:45 AM 35.5°F1.9°C 34.5°F1.4°C 96% Calm Calm -- 30.10 in1019.3 mb - 0.00 in0.0 mm 0.01 in0.3 mm
06:40 AM 35.6°F2.0°C 34.5°F1.4°C 96% Calm Calm -- 30.10 in1019.3 mb - 0.00 in0.0 mm 0.01 in0.3 mm
06:35 AM 35.5°F1.9°C 34.5°F1.4°C 96% Calm Calm -- 30.10 in1019.3 mb - 0.00 in0.0 mm 0.01 in0.3 mm
06:30 AM 35.4°F1.9°C 34.4°F1.3°C 96% Calm Calm -- 30.10 in1019.3 mb - 0.00 in0.0 mm 0.01 in0.3 mm
06:25 AM 35.5°F1.9°C 34.5°F1.4°C 96% Calm Calm -- 30.10 in1019.3 mb - 0.00 in0.0 mm 0.01 in0.3 mm
06:20 AM 35.7°F2.1°C 34.7°F1.5°C 96% Calm Calm -- 30.10 in1019.3 mb - 0.00 in0.0 mm 0.01 in0.3 mm
06:15 AM 35.9°F2.2°C 34.9°F1.6°C 96% Calm Calm -- 30.10 in1019.3 mb - 0.00 in0.0 mm 0.01 in0.3 mm
06:10 AM 36.0°F2.2°C 35.0°F1.7°C 96% Calm Calm -- 30.10 in1019.3 mb - 0.00 in0.0 mm 0.01 in0.3 mm
06:05 AM 36.0°F2.2°C 35.0°F1.7°C 96% Calm Calm -- 30.10 in1019.3 mb - 0.00 in0.0 mm 0.01 in0.3 mm
06:00 AM 36.1°F2.3°C 35.1°F1.7°C 96% Calm Calm -- 30.10 in1019.3 mb - 0.00 in0.0 mm 0.01 in0.3 mm
05:55 AM 36.1°F2.3°C 35.1°F1.7°C 96% Calm Calm -- 30.11 in1019.6 mb - 0.00 in0.0 mm 0.01 in0.3 mm
05:50 AM 36.0°F2.2°C 35.0°F1.7°C 96% Calm Calm -- 30.10 in1019.3 mb - 0.00 in0.0 mm 0.01 in0.3 mm
05:45 AM 36.0°F2.2°C 35.0°F1.7°C 96% Calm Calm -- 30.10 in1019.3 mb - 0.00 in0.0 mm 0.01 in0.3 mm
05:40 AM 35.9°F2.2°C 34.9°F1.6°C 96% Calm Calm -- 30.10 in1019.3 mb - 0.00 in0.0 mm 0.01 in0.3 mm
05:35 AM 35.8°F2.1°C 34.8°F1.6°C 96% Calm Calm -- 30.10 in1019.3 mb - 0.00 in0.0 mm 0.01 in0.3 mm
05:30 AM 35.7°F2.1°C 34.7°F1.5°C 96% Calm Calm -- 30.10 in1019.3 mb - 0.00 in0.0 mm 0.01 in0.3 mm
05:25 AM 35.7°F2.1°C 34.7°F1.5°C 96% Calm Calm -- 30.10 in1019.3 mb - 0.00 in0.0 mm 0.01 in0.3 mm
05:20 AM 35.9°F2.2°C 34.8°F1.6°C 96% Calm Calm -- 30.10 in1019.3 mb - 0.00 in0.0 mm 0.01 in0.3 mm
05:15 AM 36.0°F2.2°C 35.0°F1.7°C 96% Calm Calm -- 30.10 in1019.3 mb - 0.00 in0.0 mm 0.01 in0.3 mm
05:10 AM 36.1°F2.3°C 35.1°F1.7°C 96% Calm Calm -- 30.10 in1019.3 mb - 0.00 in0.0 mm 0.01 in0.3 mm
05:05 AM 36.1°F2.3°C 35.1°F1.7°C 96% Calm Calm -- 30.10 in1019.3 mb - 0.00 in0.0 mm 0.01 in0.3 mm
05:00 AM 36.2°F2.3°C 35.2°F1.8°C 96% Calm Calm -- 30.10 in1019.3 mb - 0.00 in0.0 mm 0.01 in0.3 mm
04:55 AM 36.3°F2.4°C 35.3°F1.8°C 96% Calm Calm -- 30.10 in1019.3 mb - 0.00 in0.0 mm 0.01 in0.3 mm
04:50 AM 36.4°F2.4°C 35.4°F1.9°C 96% Calm Calm -- 30.10 in1019.3 mb - 0.00 in0.0 mm 0.01 in0.3 mm
04:45 AM 36.4°F2.4°C 35.4°F1.9°C 96% Calm Calm -- 30.10 in1019.3 mb - 0.00 in0.0 mm 0.01 in0.3 mm
04:40 AM 36.3°F2.4°C 35.3°F1.8°C 96% Calm Calm -- 30.10 in1019.3 mb - 0.00 in0.0 mm 0.01 in0.3 mm
04:35 AM 36.2°F2.3°C 35.2°F1.8°C 96% Calm Calm -- 30.10 in1019.3 mb - 0.00 in0.0 mm 0.01 in0.3 mm
04:30 AM 36.4°F2.4°C 35.4°F1.9°C 96% Calm Calm -- 30.10 in1019.3 mb - 0.00 in0.0 mm 0.01 in0.3 mm
04:25 AM 36.6°F2.6°C 35.6°F2.0°C 96% Calm Calm -- 30.10 in1019.3 mb - 0.00 in0.0 mm 0.01 in0.3 mm
04:20 AM 36.8°F2.7°C 35.8°F2.1°C 96% Calm Calm -- 30.10 in1019.3 mb - 0.00 in0.0 mm 0.01 in0.3 mm
04:15 AM 37.0°F2.8°C 36.0°F2.2°C 96% Calm Calm -- 30.10 in1019.3 mb - 0.00 in0.0 mm 0.01 in0.3 mm
04:10 AM 37.2°F2.9°C 36.2°F2.3°C 96% Calm Calm -- 30.10 in1019.3 mb - 0.00 in0.0 mm 0.01 in0.3 mm
04:05 AM 37.4°F3.0°C 36.4°F2.4°C 96% Calm Calm -- 30.10 in1019.3 mb - 0.00 in0.0 mm 0.01 in0.3 mm
04:00 AM 37.6°F3.1°C 36.6°F2.6°C 96% Calm Calm -- 30.10 in1019.3 mb - 0.00 in0.0 mm 0.01 in0.3 mm
03:55 AM 37.7°F3.2°C 36.7°F2.6°C 96% Calm Calm -- 30.10 in1019.3 mb - 0.00 in0.0 mm 0.01 in0.3 mm
03:50 AM 37.7°F3.2°C 36.7°F2.6°C 96% Calm Calm -- 30.10 in1019.3 mb - 0.00 in0.0 mm 0.01 in0.3 mm
03:45 AM 37.7°F3.2°C 36.7°F2.6°C 96% Calm Calm -- 30.10 in1019.3 mb - 0.00 in0.0 mm 0.01 in0.3 mm
03:40 AM 37.9°F3.3°C 36.9°F2.7°C 96% Calm Calm -- 30.10 in1019.3 mb - 0.00 in0.0 mm 0.01 in0.3 mm
03:35 AM 37.9°F3.3°C 36.8°F2.7°C 96% Calm Calm -- 30.10 in1019.3 mb - 0.00 in0.0 mm 0.01 in0.3 mm
03:30 AM 37.7°F3.2°C 36.7°F2.6°C 96% Calm Calm -- 30.10 in1019.3 mb - 0.00 in0.0 mm 0.01 in0.3 mm
03:25 AM 37.8°F3.2°C 36.8°F2.7°C 96% Calm Calm -- 30.10 in1019.3 mb - 0.00 in0.0 mm 0.01 in0.3 mm
03:20 AM 38.0°F3.3°C 37.0°F2.8°C 96% Calm Calm -- 30.10 in1019.3 mb - 0.00 in0.0 mm 0.01 in0.3 mm
03:15 AM 38.2°F3.4°C 37.2°F2.9°C 96% Calm Calm -- 30.10 in1019.3 mb - 0.00 in0.0 mm 0.01 in0.3 mm
03:10 AM 38.5°F3.6°C 37.5°F3.1°C 96% Calm Calm -- 30.10 in1019.3 mb - 0.00 in0.0 mm 0.01 in0.3 mm
03:05 AM 38.7°F3.7°C 37.6°F3.1°C 96% Calm Calm -- 30.10 in1019.3 mb - 0.00 in0.0 mm 0.01 in0.3 mm
03:00 AM 38.7°F3.7°C 37.7°F3.2°C 96% Calm Calm -- 30.10 in1019.3 mb - 0.00 in0.0 mm 0.01 in0.3 mm
02:55 AM 38.9°F3.8°C 37.9°F3.3°C 96% Calm Calm -- 30.11 in1019.6 mb - 0.00 in0.0 mm 0.01 in0.3 mm
02:50 AM 39.0°F3.9°C 38.0°F3.3°C 96% Calm Calm -- 30.11 in1019.6 mb - 0.00 in0.0 mm 0.01 in0.3 mm
02:45 AM 39.2°F4.0°C 38.2°F3.4°C 96% Calm Calm -- 30.11 in1019.6 mb - 0.00 in0.0 mm 0.01 in0.3 mm
02:40 AM 39.3°F4.1°C 38.3°F3.5°C 96% Calm Calm -- 30.11 in1019.6 mb - 0.00 in0.0 mm 0.01 in0.3 mm
02:35 AM 39.4°F4.1°C 38.4°F3.6°C 96% Calm Calm -- 30.11 in1019.6 mb - 0.00 in0.0 mm 0.01 in0.3 mm
02:30 AM 39.5°F4.2°C 38.5°F3.6°C 96% Calm Calm -- 30.11 in1019.6 mb - 0.00 in0.0 mm 0.01 in0.3 mm
02:25 AM 39.6°F4.2°C 38.6°F3.7°C 96% Calm Calm -- 30.12 in1020.0 mb - 0.00 in0.0 mm 0.01 in0.3 mm
02:20 AM 39.5°F4.2°C 38.5°F3.6°C 96% Calm Calm -- 30.12 in1020.0 mb - 0.00 in0.0 mm 0.01 in0.3 mm
02:15 AM 39.5°F4.2°C 38.4°F3.6°C 96% Calm Calm -- 30.12 in1020.0 mb - 0.01 in0.3 mm 0.01 in0.3 mm
02:10 AM 39.6°F4.2°C 38.5°F3.6°C 96% Calm Calm -- 30.12 in1020.0 mb - 0.01 in0.3 mm 0.01 in0.3 mm
02:05 AM 39.8°F4.3°C 38.4°F3.6°C 95% Calm Calm -- 30.12 in1020.0 mb - 0.00 in0.0 mm 0.00 in0.0 mm
02:00 AM 40.0°F4.4°C 38.7°F3.7°C 95% Calm Calm -- 30.13 in1020.3 mb - 0.00 in0.0 mm 0.00 in0.0 mm
01:55 AM 40.3°F4.6°C 39.3°F4.1°C 96% Calm Calm -- 30.13 in1020.3 mb - 0.00 in0.0 mm 0.00 in0.0 mm
01:50 AM 40.6°F4.8°C 39.5°F4.2°C 96% Calm Calm -- 30.13 in1020.3 mb - 0.00 in0.0 mm 0.00 in0.0 mm
01:45 AM 40.7°F4.8°C 39.6°F4.2°C 96% Calm Calm -- 30.13 in1020.3 mb - 0.00 in0.0 mm 0.00 in0.0 mm
01:40 AM 40.7°F4.8°C 39.7°F4.3°C 96% Calm Calm -- 30.13 in1020.3 mb - 0.00 in0.0 mm 0.00 in0.0 mm
01:35 AM 40.9°F4.9°C 39.8°F4.3°C 96% Calm Calm -- 30.13 in1020.3 mb - 0.00 in0.0 mm 0.00 in0.0 mm
01:30 AM 40.9°F4.9°C 39.8°F4.3°C 96% Calm Calm -- 30.13 in1020.3 mb - 0.00 in0.0 mm 0.00 in0.0 mm
01:25 AM 40.7°F4.8°C 39.7°F4.3°C 96% Calm Calm -- 30.13 in1020.3 mb - 0.00 in0.0 mm 0.00 in0.0 mm
01:20 AM 40.6°F4.8°C 39.5°F4.2°C 96% Calm Calm -- 30.13 in1020.3 mb - 0.00 in0.0 mm 0.00 in0.0 mm
01:15 AM 40.6°F4.8°C 39.5°F4.2°C 96% Calm Calm -- 30.13 in1020.3 mb - 0.00 in0.0 mm 0.00 in0.0 mm
01:10 AM 40.5°F4.7°C 39.4°F4.1°C 96% Calm Calm -- 30.13 in1020.3 mb - 0.00 in0.0 mm 0.00 in0.0 mm
01:05 AM 40.6°F4.8°C 39.5°F4.2°C 96% Calm Calm -- 30.13 in1020.3 mb - 0.00 in0.0 mm 0.00 in0.0 mm
01:00 AM 40.7°F4.8°C 39.6°F4.2°C 96% Calm Calm -- 30.13 in1020.3 mb - 0.00 in0.0 mm 0.00 in0.0 mm
12:55 AM 40.7°F4.8°C 39.6°F4.2°C 96% Calm Calm -- 30.13 in1020.3 mb - 0.00 in0.0 mm 0.00 in0.0 mm
12:50 AM 40.6°F4.8°C 39.5°F4.2°C 96% Calm Calm -- 30.13 in1020.3 mb - 0.00 in0.0 mm 0.00 in0.0 mm
12:45 AM 40.5°F4.7°C 39.5°F4.2°C 96% Calm Calm -- 30.13 in1020.3 mb - 0.00 in0.0 mm 0.00 in0.0 mm
12:40 AM 40.5°F4.7°C 39.2°F4.0°C 95% Calm Calm -- 30.13 in1020.3 mb - 0.00 in0.0 mm 0.00 in0.0 mm
12:35 AM 40.6°F4.8°C 39.2°F4.0°C 95% Calm Calm -- 30.13 in1020.3 mb - 0.00 in0.0 mm 0.00 in0.0 mm
12:30 AM 40.7°F4.8°C 39.4°F4.1°C 95% Calm Calm -- 30.13 in1020.3 mb - 0.00 in0.0 mm 0.00 in0.0 mm
12:25 AM 40.9°F4.9°C 39.5°F4.2°C 95% Calm Calm -- 30.13 in1020.3 mb - 0.00 in0.0 mm 0.00 in0.0 mm
12:20 AM 41.0°F5.0°C 39.7°F4.3°C 95% Calm Calm -- 30.13 in1020.3 mb - 0.00 in0.0 mm 0.00 in0.0 mm
12:15 AM 41.1°F5.1°C 39.8°F4.3°C 95% Calm Calm -- 30.13 in1020.3 mb - 0.00 in0.0 mm 0.00 in0.0 mm
12:10 AM 41.2°F5.1°C 39.9°F4.4°C 95% Calm Calm -- 30.13 in1020.3 mb - 0.00 in0.0 mm 0.00 in0.0 mm
12:05 AM 41.2°F5.1°C 39.9°F4.4°C 95% Calm Calm -- 30.13 in1020.3 mb - 0.00 in0.0 mm 0.00 in0.0 mm
12:00 AM 41.3°F5.2°C 40.0°F4.4°C 95% Calm Calm -- 30.13 in1020.3 mb - 0.00 in0.0 mm 0.00 in0.0 mm